Portada
METAR-TAF:

METAR-TAF

Aeropuertos :

Aeropuerto de Logroño-Agoncillo

Logroño, España

latitud: 42-27N, longitud: 002-20W, altitud: 353 m

Observación

El informe se hizo hace 38 minutos, a las 19:00 UTC
Viento 3 kt del oeste
Temperatura 7°C
Humedad 93%
Presión 1019 hPa
Visibilidad 10 km o más
sin nubes por debajo de 1500 m y sin presencia de cumulonimbus.

METAR: LELO 291900Z 26003KT CAVOK 07/06 Q1019

Hora: 20:38 (19:38 UTC)

Pronóstico

El informe se hizo hace 5 horas y 38 minutos, a las 14:00 UTC
Pronóstico válido del 29 a las 15 UTC al 30 a las 15 UTC
Viento 4 kt del este
Visibilidad 10 km o más
sin nubes por debajo de 1500 m y sin presencia de cumulonimbus.

TAF: LELO 291400Z 2915/3015 10004KT CAVOK TX15/3015Z TN01/3007Z

Observaciones y pronósticos meteorológicos de más de 4000 aeropuertos (mensajes METAR y TAF).

Los puntos amarillos y rojos representan las estaciones disponibles.

Ponga el ratón en el punto deseado para ver el nombre de la estación.

Haga clic para ver las observaciones y los pronósticos meteorológicos.

Para cambiar el mapa : haga clic en los botones verdes con una cruz de color negro para hacer un zoom, en el botón verde con un guión para alejar o en las flechas verdes para mapas adyacentes.


METAR-TAF: